Time;durP1;ratioP1;P1;durP2;ratioP2;P2;SDS_P1;SDS_P2;PMS_P1;PMS_P2;Temp;Humidity;BMP_temperature;BMP_pressure;BME280_temperature;BME280_humidity;BME280_pressure;Samples;Min_cycle;Max_cycle;Signal;HPM_P1;HPM_P2
2023/10/08 00:03:10;;;;;;;12.73;9.00;;;14.80;99.90;;;;;;4996740;28;20971;-80
2023/10/08 00:05:42;;;;;;;13.30;9.57;;;14.80;99.90;;;;;;4995837;28;20502;-79
2023/10/08 00:08:11;;;;;;;9.20;6.07;;;14.80;99.90;;;;;;4995663;28;20524;-79
2023/10/08 00:10:41;;;;;;;6.70;4.03;;;14.80;99.90;;;;;;4995751;28;20497;-79
2023/10/08 00:13:09;;;;;;;3.43;2.80;;;14.80;99.90;;;;;;4994807;28;20552;-79
2023/10/08 00:15:37;;;;;;;5.87;2.10;;;14.80;99.90;;;;;;4995625;28;20470;-79
2023/10/08 00:18:05;;;;;;;3.50;3.00;;;14.80;99.90;;;;;;4996539;28;20466;-89
2023/10/08 00:20:42;;;;;;;4.40;2.30;;;14.80;99.90;;;;;;4997933;28;21030;-89
2023/10/08 00:23:11;;;;;;;3.70;2.13;;;14.80;99.90;;;;;;4996537;28;20477;-89
2023/10/08 00:25:40;;;;;;;4.50;2.60;;;14.80;99.90;;;;;;4997128;28;20859;-89
2023/10/08 00:28:12;;;;;;;3.97;2.33;;;14.80;99.90;;;;;;4995570;28;20528;-79
2023/10/08 00:30:41;;;;;;;3.93;1.97;;;14.80;99.90;;;;;;4994075;28;20485;-79
2023/10/08 00:33:11;;;;;;;2.33;1.70;;;14.80;99.90;;;;;;4994873;28;20836;-79
2023/10/08 00:35:41;;;;;;;2.60;2.07;;;14.80;99.90;;;;;;4995407;28;20469;-80
2023/10/08 00:38:14;;;;;;;3.40;2.20;;;14.80;99.90;;;;;;4994392;28;20481;-80
2023/10/08 00:40:45;;;;;;;3.07;1.90;;;14.80;99.90;;;;;;4994577;28;20470;-80
2023/10/08 00:43:28;;;;;;;4.60;2.37;;;14.80;99.90;;;;;;4994877;28;20532;-80
2023/10/08 00:45:59;;;;;;;3.27;2.40;;;14.80;99.90;;;;;;4994400;28;20501;-79
2023/10/08 00:48:28;;;;;;;5.13;2.33;;;14.80;99.90;;;;;;4995533;28;20480;-78
2023/10/08 00:51:24;;;;;;;3.60;2.03;;;14.80;99.90;;;;;;4994279;28;20535;-79
2023/10/08 00:53:57;;;;;;;2.30;1.67;;;14.80;99.90;;;;;;4996564;28;20303;-80
2023/10/08 00:56:44;;;;;;;3.90;2.37;;;14.80;99.90;;;;;;4994661;28;20473;-80
2023/10/08 00:59:14;;;;;;;3.77;2.30;;;14.70;99.90;;;;;;4994553;28;20488;-80
2023/10/08 01:01:45;;;;;;;5.60;3.00;;;14.70;99.90;;;;;;4995240;28;20466;-80
2023/10/08 01:04:17;;;;;;;4.47;1.90;;;14.70;99.90;;;;;;4995690;28;20457;-90
2023/10/08 01:06:47;;;;;;;2.80;1.73;;;14.70;99.90;;;;;;5015793;28;20529;-90
2023/10/08 01:09:18;;;;;;;2.97;2.17;;;14.70;99.90;;;;;;5002199;28;20465;-80
2023/10/08 01:11:49;;;;;;;2.53;2.30;;;14.70;99.90;;;;;;4995763;28;20532;-90
2023/10/08 01:14:18;;;;;;;4.07;2.40;;;14.70;99.90;;;;;;5000260;28;20454;-89
2023/10/08 01:16:47;;;;;;;4.47;2.17;;;14.70;99.90;;;;;;5000645;28;20466;-90
2023/10/08 01:19:20;;;;;;;3.43;2.37;;;14.70;99.90;;;;;;5000696;28;20519;-90
2023/10/08 01:21:53;;;;;;;3.90;2.83;;;14.70;99.90;;;;;;4996579;28;20462;-90
2023/10/08 01:24:24;;;;;;;4.03;2.80;;;14.70;99.90;;;;;;4996211;28;20497;-80
2023/10/08 01:26:51;;;;;;;6.87;2.93;;;14.70;99.90;;;;;;4994342;28;20478;-81
2023/10/08 01:29:20;;;;;;;4.93;3.00;;;14.70;99.90;;;;;;4996427;28;20466;-90
2023/10/08 01:31:48;;;;;;;4.43;2.93;;;14.70;99.90;;;;;;4995859;28;20982;-80
2023/10/08 01:34:17;;;;;;;5.90;2.70;;;14.60;99.90;;;;;;4998654;28;20502;-89
2023/10/08 01:36:45;;;;;;;4.20;2.47;;;14.60;99.90;;;;;;4999001;28;20486;-79
2023/10/08 01:39:15;;;;;;;3.40;2.50;;;14.70;99.90;;;;;;4997405;28;20807;-90
2023/10/08 01:41:46;;;;;;;4.40;2.73;;;14.60;99.90;;;;;;5006857;28;20496;-89
2023/10/08 01:44:13;;;;;;;2.50;1.87;;;14.60;99.90;;;;;;5006502;28;20466;-90
2023/10/08 01:46:40;;;;;;;5.40;2.40;;;14.70;99.90;;;;;;5006981;28;20473;-88
2023/10/08 01:49:14;;;;;;;5.83;2.57;;;14.70;99.90;;;;;;5010240;28;20537;-88
2023/10/08 01:51:46;;;;;;;3.20;1.80;;;14.70;99.90;;;;;;5015210;28;20453;-88
2023/10/08 01:54:17;;;;;;;6.00;2.47;;;14.70;99.90;;;;;;5012968;28;20462;-89
2023/10/08 01:56:45;;;;;;;3.57;2.63;;;14.60;99.90;;;;;;5012725;28;20498;-89
2023/10/08 01:59:15;;;;;;;4.63;2.50;;;14.60;99.90;;;;;;5010132;28;20980;-80
2023/10/08 02:01:42;;;;;;;2.80;2.00;;;14.70;99.90;;;;;;4994781;28;20863;-80
2023/10/08 02:06:53;;;;;;;2.90;2.70;;;14.70;99.90;;;;;;4997473;28;20245;-80
2023/10/08 02:09:25;;;;;;;6.43;2.50;;;14.60;99.90;;;;;;4995497;28;20528;-80
2023/10/08 02:11:55;;;;;;;3.90;2.33;;;14.60;99.90;;;;;;4994083;28;20474;-79
2023/10/08 02:14:22;;;;;;;4.53;2.90;;;14.60;99.90;;;;;;4997512;28;20466;-90
2023/10/08 02:16:52;;;;;;;4.35;2.75;;;14.60;99.90;;;;;;4994098;28;20528;-79
2023/10/08 02:19:26;;;;;;;8.30;2.90;;;14.60;99.90;;;;;;4993999;28;20284;-79
2023/10/08 02:21:54;;;;;;;7.40;3.90;;;14.60;99.90;;;;;;4994975;28;20958;-89
2023/10/08 02:24:25;;;;;;;3.10;2.63;;;14.60;99.90;;;;;;4994558;28;20794;-89
2023/10/08 02:26:54;;;;;;;7.47;3.43;;;14.60;99.90;;;;;;4994922;28;20481;-89
2023/10/08 02:29:22;;;;;;;4.93;3.00;;;14.60;99.90;;;;;;4993778;28;20493;-89
2023/10/08 02:31:50;;;;;;;8.40;3.27;;;14.60;99.90;;;;;;4994222;28;20989;-80
2023/10/08 02:34:18;;;;;;;4.23;3.67;;;14.60;99.90;;;;;;4992647;28;20534;-78
2023/10/08 02:36:46;;;;;;;6.20;3.57;;;14.60;99.90;;;;;;4993305;28;20561;-79
2023/10/08 02:39:17;;;;;;;5.77;3.33;;;14.60;99.90;;;;;;4993407;28;20558;-88
2023/10/08 02:41:46;;;;;;;4.80;3.60;;;14.60;99.90;;;;;;4994861;28;20557;-89
2023/10/08 02:44:16;;;;;;;7.20;3.17;;;14.60;99.90;;;;;;4993867;28;20559;-89
2023/10/08 02:46:47;;;;;;;7.93;3.07;;;14.60;99.90;;;;;;4993907;28;20481;-79
2023/10/08 02:49:19;;;;;;;4.93;3.43;;;14.60;99.90;;;;;;4986735;28;20473;-88
2023/10/08 02:51:46;;;;;;;7.00;3.83;;;14.60;99.90;;;;;;4993520;28;20504;-79
2023/10/08 02:54:18;;;;;;;5.20;3.57;;;14.60;99.90;;;;;;4995092;28;20474;-80
2023/10/08 02:56:46;;;;;;;5.77;3.53;;;14.60;99.90;;;;;;4997579;28;20461;-79
2023/10/08 02:59:15;;;;;;;5.27;3.43;;;14.60;99.90;;;;;;4996763;28;20561;-79
2023/10/08 03:01:42;;;;;;;4.90;3.33;;;14.60;99.90;;;;;;4998370;28;20858;-89
2023/10/08 03:04:18;;;;;;;6.17;4.40;;;14.60;99.90;;;;;;4997407;28;20545;-84
2023/10/08 03:06:49;;;;;;;6.80;4.07;;;14.60;99.90;;;;;;4998560;28;20469;-88
2023/10/08 03:09:20;;;;;;;3.60;3.03;;;14.60;99.90;;;;;;4996935;28;20478;-79
2023/10/08 03:11:48;;;;;;;9.50;3.80;;;14.60;99.90;;;;;;4996948;28;20477;-79
2023/10/08 03:14:21;;;;;;;6.53;3.40;;;14.60;99.90;;;;;;4996400;28;20474;-88
2023/10/08 03:16:50;;;;;;;7.73;4.03;;;14.60;99.90;;;;;;4997753;28;20462;-79
2023/10/08 03:19:19;;;;;;;8.27;3.90;;;14.60;99.90;;;;;;4996409;28;21018;-79
2023/10/08 03:21:54;;;;;;;6.87;3.47;;;14.50;99.90;;;;;;4996810;28;20458;-79
2023/10/08 03:24:36;;;;;;;9.20;4.13;;;14.50;99.90;;;;;;4986326;28;20485;-79
2023/10/08 03:27:07;;;;;;;6.10;3.83;;;14.60;99.90;;;;;;4996601;28;20478;-79
2023/10/08 03:29:41;;;;;;;8.13;4.33;;;14.60;99.90;;;;;;4996079;28;20472;-79
2023/10/08 03:32:13;;;;;;;6.00;3.60;;;14.50;99.90;;;;;;4996730;28;20474;-79
2023/10/08 03:34:43;;;;;;;7.13;4.30;;;14.50;99.90;;;;;;4996239;28;20489;-89
2023/10/08 03:37:10;;;;;;;7.57;4.50;;;14.50;99.90;;;;;;4997113;28;20476;-91
2023/10/08 03:42:40;;;;;;;8.67;4.60;;;14.50;99.90;;;;;;5112810;27;20555;-79
2023/10/08 03:45:16;;;;;;;6.10;3.93;;;14.50;99.90;;;;;;5120308;27;20459;-79
2023/10/08 03:47:46;;;;;;;6.80;4.47;;;14.50;99.90;;;;;;5133351;27;20969;-79
2023/10/08 03:50:17;;;;;;;3.30;2.80;;;14.50;99.90;;;;;;5131515;27;20484;-79
2023/10/08 03:52:44;;;;;;;5.47;3.80;;;14.50;99.90;;;;;;5136951;27;20447;-88
2023/10/08 03:55:26;;;;;;;8.73;4.47;;;14.50;99.90;;;;;;5137168;27;20543;-89
2023/10/08 03:58:03;;;;;;;5.23;3.80;;;14.50;99.90;;;;;;5152051;27;20524;-89
2023/10/08 04:00:31;;;;;;;4.60;3.20;;;14.50;99.90;;;;;;5140165;27;20474;-87
2023/10/08 04:03:07;;;;;;;7.23;4.10;;;14.40;99.90;;;;;;5153942;27;20436;-88
2023/10/08 04:05:44;;;;;;;6.90;3.73;;;14.40;99.90;;;;;;5144607;27;20471;-80
2023/10/08 04:08:24;;;;;;;3.70;2.87;;;14.40;99.90;;;;;;5134186;27;20531;-88
2023/10/08 04:11:22;;;;;;;7.53;4.03;;;14.40;99.90;;;;;;5147932;27;20448;-89
2023/10/08 04:13:51;;;;;;;10.60;3.60;;;14.40;99.90;;;;;;5142147;27;20491;-89
2023/10/08 04:16:21;;;;;;;5.87;3.40;;;14.30;99.90;;;;;;5132676;27;20478;-79
2023/10/08 04:18:50;;;;;;;4.13;2.80;;;14.30;99.90;;;;;;5130677;27;20468;-79
2023/10/08 04:21:20;;;;;;;7.87;4.30;;;14.40;99.90;;;;;;5131146;27;20854;-79
2023/10/08 04:23:51;;;;;;;6.83;4.10;;;14.30;99.90;;;;;;5130454;27;20468;-79
2023/10/08 04:26:18;;;;;;;7.27;4.10;;;14.30;99.90;;;;;;5131247;27;20472;-79
2023/10/08 04:28:48;;;;;;;7.10;4.60;;;14.30;99.90;;;;;;5129942;27;20520;-79
2023/10/08 04:31:16;;;;;;;5.10;3.37;;;14.30;99.90;;;;;;5130562;27;20559;-79
2023/10/08 04:33:46;;;;;;;4.07;3.53;;;14.30;99.90;;;;;;5136946;27;20463;-79
2023/10/08 04:36:17;;;;;;;7.77;3.93;;;14.30;99.90;;;;;;5134953;27;20532;-79
2023/10/08 04:38:47;;;;;;;4.17;3.30;;;14.30;99.90;;;;;;5130693;27;20498;-81
2023/10/08 04:41:18;;;;;;;5.57;3.40;;;14.30;99.90;;;;;;5130820;27;20513;-79
2023/10/08 04:43:49;;;;;;;5.40;3.10;;;14.30;99.90;;;;;;5130559;27;20491;-80
2023/10/08 04:46:33;;;;;;;6.10;3.60;;;14.30;99.90;;;;;;5130953;27;20528;-79
2023/10/08 04:49:05;;;;;;;6.90;3.23;;;14.20;99.90;;;;;;5129771;27;20547;-80
2023/10/08 04:51:36;;;;;;;6.70;4.23;;;14.20;99.90;;;;;;5129909;27;20459;-80
2023/10/08 04:54:05;;;;;;;5.47;2.90;;;14.20;99.90;;;;;;5116223;27;20460;-80
2023/10/08 04:56:39;;;;;;;11.57;4.30;;;14.20;99.90;;;;;;5116277;27;20556;-80
2023/10/08 04:59:09;;;;;;;4.37;3.40;;;14.20;99.90;;;;;;5116548;27;20464;-80
2023/10/08 05:01:47;;;;;;;6.90;4.17;;;14.20;99.90;;;;;;5118574;27;20915;-79
2023/10/08 05:04:26;;;;;;;7.03;3.60;;;14.10;99.90;;;;;;5120560;27;20801;-80
2023/10/08 05:07:17;;;;;;;3.93;3.50;;;14.10;99.90;;;;;;5120665;27;20521;-80
2023/10/08 05:09:52;;;;;;;8.53;4.77;;;14.10;99.90;;;;;;5118550;27;20830;-80
2023/10/08 05:12:34;;;;;;;5.90;4.30;;;14.10;99.90;;;;;;5117795;27;20464;-80
2023/10/08 05:15:32;;;;;;;5.47;3.13;;;14.10;99.90;;;;;;5116333;27;20464;-80
2023/10/08 05:18:13;;;;;;;5.80;3.90;;;14.00;99.90;;;;;;5117026;27;20471;-80
2023/10/08 05:21:02;;;;;;;4.40;2.90;;;14.00;99.90;;;;;;5116887;27;20804;-79
2023/10/08 05:23:53;;;;;;;6.00;4.07;;;14.00;99.90;;;;;;5116542;27;20463;-80
2023/10/08 05:26:31;;;;;;;8.67;4.30;;;13.90;99.90;;;;;;5116713;27;20468;-79
2023/10/08 05:29:39;;;;;;;5.40;3.07;;;13.90;99.90;;;;;;5116625;27;20475;-79
2023/10/08 05:32:30;;;;;;;6.40;4.80;;;13.90;99.90;;;;;;5115853;27;20452;-81
2023/10/08 05:34:56;;;;;;;6.03;3.20;;;13.90;99.90;;;;;;5113408;27;20802;-80
2023/10/08 05:37:40;;;;;;;7.47;4.47;;;13.90;99.90;;;;;;5122233;27;20555;-81
2023/10/08 05:40:53;;;;;;;6.00;3.87;;;13.90;99.90;;;;;;5114782;27;20543;-80
2023/10/08 05:43:23;;;;;;;8.83;4.50;;;13.90;99.90;;;;;;5115174;27;20465;-80
2023/10/08 05:46:39;;;;;;;9.37;4.23;;;13.80;99.90;;;;;;5115904;27;20529;-80
2023/10/08 05:48:45;;;;;;;8.40;4.67;;;13.80;99.90;;;;;;5115784;27;20476;-80
2023/10/08 05:51:33;;;;;;;7.83;4.47;;;13.80;99.90;;;;;;5116015;27;20472;-80
2023/10/08 05:54:10;;;;;;;5.97;3.83;;;13.80;99.90;;;;;;5105498;27;20462;-80
2023/10/08 05:56:52;;;;;;;5.87;3.40;;;13.80;99.90;;;;;;5129755;27;20460;-80
2023/10/08 05:59:27;;;;;;;6.63;4.20;;;13.80;99.90;;;;;;5121180;27;20532;-80
2023/10/08 06:02:05;;;;;;;8.33;4.70;;;13.80;99.90;;;;;;5106259;27;20474;-80
2023/10/08 06:04:53;;;;;;;7.47;3.73;;;13.80;99.90;;;;;;5115277;27;20476;-80
2023/10/08 06:07:33;;;;;;;7.57;5.40;;;13.80;99.90;;;;;;5121311;27;20555;-79
2023/10/08 06:10:13;;;;;;;7.23;4.27;;;13.80;99.90;;;;;;5118400;27;20456;-80
2023/10/08 06:12:49;;;;;;;8.70;4.45;;;13.80;99.90;;;;;;5101604;27;20473;-79
2023/10/08 06:15:27;;;;;;;9.53;5.57;;;13.80;99.90;;;;;;5116311;27;20253;-80
2023/10/08 06:17:58;;;;;;;11.53;8.13;;;13.80;99.90;;;;;;5114790;27;20464;-80
2023/10/08 06:20:28;;;;;;;10.23;5.63;;;13.80;99.90;;;;;;5115480;27;20527;-80
2023/10/08 06:23:07;;;;;;;11.50;4.20;;;13.80;99.90;;;;;;5121467;27;20483;-81
2023/10/08 06:25:44;;;;;;;4.23;3.30;;;13.80;99.90;;;;;;5118142;27;20555;-80
2023/10/08 06:28:14;;;;;;;8.53;3.60;;;13.80;99.90;;;;;;5118555;27;20464;-80
2023/10/08 06:30:43;;;;;;;9.53;3.53;;;13.80;99.90;;;;;;5116437;27;20468;-80
2023/10/08 06:33:11;;;;;;;6.70;4.70;;;13.90;99.90;;;;;;5115398;27;20522;-80
2023/10/08 06:35:38;;;;;;;5.03;3.80;;;13.90;99.90;;;;;;5115565;27;20565;-80
2023/10/08 06:38:09;;;;;;;6.50;3.53;;;14.00;99.90;;;;;;5114753;27;20530;-81
2023/10/08 06:40:43;;;;;;;6.07;3.33;;;14.00;99.90;;;;;;5115127;27;20514;-80
2023/10/08 06:43:16;;;;;;;8.77;5.10;;;14.00;99.90;;;;;;5114665;27;20468;-80
2023/10/08 06:45:44;;;;;;;9.50;5.40;;;14.00;99.90;;;;;;5115054;27;20500;-80
2023/10/08 06:48:17;;;;;;;8.83;4.93;;;14.00;99.90;;;;;;5120593;27;20460;-80
2023/10/08 06:50:47;;;;;;;6.47;4.70;;;14.00;99.90;;;;;;5117733;27;20969;-80
2023/10/08 06:53:18;;;;;;;10.43;4.73;;;14.00;99.90;;;;;;5114127;27;20513;-80
2023/10/08 06:55:47;;;;;;;3.43;3.13;;;14.00;99.90;;;;;;5114360;27;20473;-79
2023/10/08 06:58:14;;;;;;;5.00;3.37;;;14.00;99.90;;;;;;5113830;27;20525;-80
2023/10/08 07:00:46;;;;;;;7.63;4.07;;;14.00;99.90;;;;;;5114065;27;20475;-80
2023/10/08 07:03:17;;;;;;;4.07;3.43;;;14.10;99.90;;;;;;5112793;27;20536;-79
2023/10/08 07:05:54;;;;;;;5.33;3.20;;;14.10;99.90;;;;;;5114017;27;20472;-80
2023/10/08 07:08:25;;;;;;;2.93;2.60;;;14.10;99.90;;;;;;5113439;27;21035;-80
2023/10/08 07:10:53;;;;;;;7.67;3.50;;;14.10;99.90;;;;;;5113604;27;20475;-79
2023/10/08 07:13:21;;;;;;;3.53;2.43;;;14.10;99.90;;;;;;5113297;27;20482;-80
2023/10/08 07:15:50;;;;;;;6.37;2.80;;;14.10;99.90;;;;;;5118426;27;20464;-79
2023/10/08 07:18:24;;;;;;;4.87;2.30;;;14.10;99.90;;;;;;5112766;27;20500;-89
2023/10/08 07:21:00;;;;;;;4.27;2.17;;;14.00;99.90;;;;;;5114484;27;20478;-80
2023/10/08 07:23:34;;;;;;;3.97;3.30;;;14.10;99.90;;;;;;5112358;27;20460;-80
2023/10/08 07:26:10;;;;;;;3.10;2.80;;;14.10;99.90;;;;;;5114149;27;20618;-89
2023/10/08 07:28:43;;;;;;;3.17;2.10;;;14.10;99.90;;;;;;5113134;27;20464;-89
2023/10/08 07:31:16;;;;;;;2.00;1.70;;;14.10;99.90;;;;;;5114193;27;20222;-79
2023/10/08 07:33:55;;;;;;;5.33;2.70;;;14.10;99.90;;;;;;5112957;27;20448;-81
2023/10/08 07:36:23;;;;;;;7.93;3.00;;;14.10;99.90;;;;;;5112185;27;20468;-80
2023/10/08 07:38:52;;;;;;;5.47;3.07;;;14.10;99.90;;;;;;5104897;27;20472;-90
2023/10/08 07:41:20;;;;;;;4.23;2.30;;;14.10;99.90;;;;;;5097011;27;20473;-80
2023/10/08 07:44:14;;;;;;;4.80;2.50;;;14.20;99.90;;;;;;5115847;27;20464;-90
2023/10/08 07:46:44;;;;;;;2.00;1.83;;;14.20;99.90;;;;;;5114098;27;20452;-80
2023/10/08 07:49:14;;;;;;;2.67;1.73;;;14.20;99.90;;;;;;5112336;27;20535;-80
2023/10/08 07:51:50;;;;;;;3.67;2.20;;;14.20;99.90;;;;;;5119601;27;20489;-89
2023/10/08 07:54:19;;;;;;;4.53;2.10;;;14.20;99.90;;;;;;5112693;27;20555;-79
2023/10/08 07:56:51;;;;;;;3.50;2.30;;;14.20;99.90;;;;;;5112646;27;20469;-80
2023/10/08 07:59:22;;;;;;;3.27;2.73;;;14.30;99.90;;;;;;5113617;27;20937;-88
2023/10/08 08:01:52;;;;;;;3.23;1.60;;;14.30;99.90;;;;;;5113471;27;20469;-79
2023/10/08 08:04:22;;;;;;;3.30;2.23;;;14.30;99.90;;;;;;5112529;27;20480;-80
2023/10/08 08:07:04;;;;;;;2.50;2.30;;;14.30;99.90;;;;;;5112006;27;20521;-90
2023/10/08 08:09:37;;;;;;;2.47;2.00;;;14.30;99.90;;;;;;5120862;27;20477;-89
2023/10/08 08:12:10;;;;;;;4.73;2.50;;;14.40;99.90;;;;;;5114442;27;20930;-89
2023/10/08 08:14:41;;;;;;;2.40;2.00;;;14.40;99.90;;;;;;5112392;27;20497;-89
2023/10/08 08:17:14;;;;;;;5.70;2.70;;;14.40;99.90;;;;;;5114493;27;20521;-89
2023/10/08 08:19:41;;;;;;;3.07;2.13;;;14.40;99.90;;;;;;5112813;27;20461;-80
2023/10/08 08:22:08;;;;;;;2.17;1.97;;;14.50;99.90;;;;;;5113091;27;20793;-90
2023/10/08 08:24:52;;;;;;;2.70;2.03;;;14.50;99.90;;;;;;5112042;27;20480;-81
2023/10/08 08:27:31;;;;;;;4.70;2.27;;;14.50;99.90;;;;;;5112527;27;20805;-80
2023/10/08 08:30:13;;;;;;;3.17;1.87;;;14.50;99.90;;;;;;5117746;27;20496;-88
2023/10/08 08:32:43;;;;;;;2.90;2.37;;;14.50;99.90;;;;;;5118561;27;20530;-89
2023/10/08 08:35:15;;;;;;;2.50;2.30;;;14.50;99.90;;;;;;5116869;27;20475;-91
2023/10/08 08:37:43;;;;;;;3.10;1.80;;;14.60;99.90;;;;;;5116654;27;20495;-79
2023/10/08 08:40:25;;;;;;;2.30;1.70;;;14.60;99.90;;;;;;5114671;27;20464;-80
2023/10/08 08:43:03;;;;;;;3.60;1.57;;;14.60;99.90;;;;;;5117537;27;20469;-90
2023/10/08 08:45:33;;;;;;;1.97;1.40;;;14.60;99.90;;;;;;5109726;27;20472;-82
2023/10/08 08:48:04;;;;;;;3.03;1.90;;;14.70;99.90;;;;;;5115054;27;20464;-80
2023/10/08 08:54:16;;;;;;;3.70;1.67;;;14.70;99.90;;;;;;5059553;28;20486;-89
2023/10/08 08:56:57;;;;;;;3.27;2.03;;;14.80;99.90;;;;;;5103834;27;20463;-81
2023/10/08 08:59:25;;;;;;;3.13;1.70;;;14.80;99.90;;;;;;5116634;27;20499;-90
2023/10/08 09:01:54;;;;;;;1.63;1.43;;;14.80;99.90;;;;;;5115206;27;20476;-80
2023/10/08 09:04:29;;;;;;;2.27;1.87;;;14.90;99.90;;;;;;5117833;27;20480;-89
2023/10/08 09:06:57;;;;;;;2.10;1.90;;;14.90;99.90;;;;;;5117213;27;20906;-90
2023/10/08 09:09:46;;;;;;;2.43;1.90;;;14.90;99.90;;;;;;5119556;27;20547;-89
2023/10/08 09:12:33;;;;;;;3.40;2.37;;;14.90;99.90;;;;;;5118570;27;20456;-90
2023/10/08 09:15:09;;;;;;;5.93;2.60;;;15.00;99.90;;;;;;5117158;27;20502;-90
2023/10/08 09:17:43;;;;;;;5.20;2.80;;;15.00;99.90;;;;;;5116972;27;20969;-90
2023/10/08 09:20:17;;;;;;;4.53;3.27;;;15.00;99.90;;;;;;5115961;27;20468;-89
2023/10/08 09:22:48;;;;;;;5.13;4.57;;;15.10;99.90;;;;;;5115855;27;20953;-88
2023/10/08 09:25:23;;;;;;;8.27;7.40;;;15.10;99.90;;;;;;5115795;27;20475;-81
2023/10/08 09:27:56;;;;;;;6.80;5.77;;;15.20;99.90;;;;;;5116035;27;20475;-80
2023/10/08 09:30:28;;;;;;;6.30;3.77;;;15.20;99.90;;;;;;5115289;27;20525;-81
2023/10/08 09:32:58;;;;;;;2.90;1.77;;;15.20;99.90;;;;;;5114810;27;20464;-81
2023/10/08 09:35:29;;;;;;;3.50;3.20;;;15.20;99.90;;;;;;5114486;27;20475;-88
2023/10/08 09:37:57;;;;;;;15.03;11.30;;;15.30;99.90;;;;;;5115799;27;20545;-81
2023/10/08 09:40:25;;;;;;;12.90;10.03;;;15.30;99.90;;;;;;5114500;27;20494;-79
2023/10/08 09:42:54;;;;;;;12.10;10.00;;;15.30;99.90;;;;;;5120480;27;20503;-81
2023/10/08 09:45:22;;;;;;;11.20;9.33;;;15.40;99.90;;;;;;5114162;27;20473;-89
2023/10/08 09:47:54;;;;;;;10.37;8.60;;;15.40;99.90;;;;;;5116387;27;20488;-89
2023/10/08 09:50:28;;;;;;;10.77;7.93;;;15.40;99.90;;;;;;5115470;27;20464;-79
2023/10/08 09:53:15;;;;;;;7.57;6.23;;;15.40;99.90;;;;;;5115855;27;20528;-88
2023/10/08 09:55:45;;;;;;;3.27;2.97;;;15.50;99.90;;;;;;5106871;27;20475;-88
2023/10/08 09:58:25;;;;;;;3.47;1.90;;;15.50;99.90;;;;;;5116685;27;20977;-90
2023/10/08 10:00:53;;;;;;;3.30;2.07;;;15.50;99.90;;;;;;5115661;27;20464;-90
2023/10/08 10:03:54;;;;;;;2.00;1.57;;;15.60;99.90;;;;;;5115940;27;20808;-90
2023/10/08 10:06:22;;;;;;;1.53;1.27;;;15.60;99.90;;;;;;5120554;27;20513;-81
2023/10/08 10:08:52;;;;;;;1.57;1.27;;;15.70;99.90;;;;;;5119311;27;20524;-90
2023/10/08 10:11:19;;;;;;;1.80;1.70;;;15.70;99.90;;;;;;5115832;27;20744;-80
2023/10/08 10:14:06;;;;;;;2.30;1.80;;;15.70;99.90;;;;;;5121169;27;21040;-90
2023/10/08 10:16:37;;;;;;;1.70;1.10;;;15.70;99.90;;;;;;5122597;27;20460;-79
2023/10/08 10:19:04;;;;;;;5.87;5.20;;;15.70;99.90;;;;;;5111035;27;20486;-80
2023/10/08 10:21:42;;;;;;;2.47;2.27;;;15.80;99.90;;;;;;5115398;27;20529;-80
2023/10/08 10:26:50;;;;;;;13.87;11.33;;;15.80;99.90;;;;;;5404980;22;20501;-80
2023/10/08 10:29:39;;;;;;;3.83;3.53;;;15.80;99.90;;;;;;5013160;28;20971;-80
2023/10/08 10:32:10;;;;;;;2.87;2.20;;;15.80;99.90;;;;;;5003133;28;20477;-80
2023/10/08 10:34:51;;;;;;;3.10;2.27;;;15.80;99.90;;;;;;5013920;28;20792;-79
2023/10/08 10:37:23;;;;;;;2.20;2.00;;;15.90;99.90;;;;;;5014610;28;20480;-89
2023/10/08 10:39:56;;;;;;;1.73;1.40;;;15.90;99.90;;;;;;5017988;28;20469;-89
2023/10/08 10:42:24;;;;;;;1.70;1.20;;;15.90;99.90;;;;;;5016216;28;21198;-80
2023/10/08 10:44:59;;;;;;;1.30;1.20;;;15.90;99.90;;;;;;5035340;28;20807;-89
2023/10/08 10:47:44;;;;;;;1.50;1.40;;;16.00;99.90;;;;;;5034538;28;20467;-89
2023/10/08 10:50:31;;;;;;;1.60;1.10;;;16.00;99.90;;;;;;5033645;28;20850;-90
2023/10/08 10:53:09;;;;;;;1.30;1.10;;;16.00;99.90;;;;;;5034484;28;20467;-89
2023/10/08 10:55:37;;;;;;;1.40;1.10;;;16.00;99.90;;;;;;5038234;28;20456;-89
2023/10/08 10:58:11;;;;;;;1.93;1.40;;;16.10;99.90;;;;;;5037597;28;20456;-79
2023/10/08 11:00:48;;;;;;;1.67;1.10;;;16.10;99.90;;;;;;5034732;28;20460;-79
2023/10/08 11:03:23;;;;;;;1.60;1.30;;;16.10;99.90;;;;;;5044588;28;20464;-89
2023/10/08 11:05:54;;;;;;;1.10;1.00;;;16.10;99.50;;;;;;5042784;28;20502;-80
2023/10/08 11:08:24;;;;;;;2.27;1.13;;;16.20;99.40;;;;;;5038005;28;20460;-80
2023/10/08 11:10:52;;;;;;;2.87;1.33;;;16.10;99.90;;;;;;5032158;28;20518;-80
2023/10/08 11:13:21;;;;;;;1.57;1.23;;;16.20;99.10;;;;;;5032962;28;20475;-81
2023/10/08 11:15:52;;;;;;;1.70;1.60;;;16.20;98.10;;;;;;5032649;28;20468;-80
2023/10/08 11:18:21;;;;;;;2.33;1.70;;;16.20;98.30;;;;;;5033391;28;20507;-79
2023/10/08 11:20:54;;;;;;;1.23;1.10;;;16.20;98.10;;;;;;5033232;28;20459;-80
2023/10/08 11:23:52;;;;;;;2.17;1.20;;;16.30;98.40;;;;;;5033157;28;20487;-80
2023/10/08 11:26:21;;;;;;;1.07;0.90;;;16.30;98.60;;;;;;5036200;28;20549;-90
2023/10/08 11:28:55;;;;;;;1.10;1.00;;;16.30;98.90;;;;;;5036147;28;20543;-80
2023/10/08 11:31:35;;;;;;;1.10;1.00;;;16.30;98.50;;;;;;5032539;28;20478;-90
2023/10/08 11:34:09;;;;;;;1.97;1.30;;;16.40;97.90;;;;;;5032838;28;20495;-88
2023/10/08 11:36:52;;;;;;;3.20;2.40;;;16.40;97.80;;;;;;5033210;28;20861;-89
2023/10/08 11:39:30;;;;;;;5.50;4.40;;;16.40;97.90;;;;;;5007901;28;20472;-80
2023/10/08 11:42:02;;;;;;;4.57;4.17;;;16.40;97.70;;;;;;5026952;28;20588;-81
2023/10/08 11:44:41;;;;;;;3.33;2.87;;;16.50;97.80;;;;;;5012794;28;20819;-89
2023/10/08 11:47:19;;;;;;;3.13;2.30;;;16.50;97.90;;;;;;5003949;28;21021;-89
2023/10/08 11:49:50;;;;;;;2.87;2.67;;;16.50;97.30;;;;;;5025731;28;20471;-89
2023/10/08 11:52:21;;;;;;;3.40;2.47;;;16.50;97.30;;;;;;5032394;28;20468;-90
2023/10/08 11:54:52;;;;;;;1.93;1.70;;;16.50;96.90;;;;;;5027586;23;20464;-89
2023/10/08 11:57:51;;;;;;;1.63;1.50;;;16.60;96.90;;;;;;4990979;28;20473;-90
2023/10/08 12:03:49;;;;;;;1.67;1.50;;;16.60;97.00;;;;;;4904609;29;21011;-90
2023/10/08 12:06:18;;;;;;;1.67;1.30;;;16.60;96.40;;;;;;4998147;28;20913;-90
2023/10/08 12:08:46;;;;;;;2.37;1.20;;;16.60;96.20;;;;;;4996315;28;20477;-80
2023/10/08 12:11:16;;;;;;;1.63;1.10;;;16.70;96.20;;;;;;4996771;28;20818;-80
2023/10/08 12:13:45;;;;;;;3.87;3.50;;;16.70;96.10;;;;;;4988441;28;20466;-79
2023/10/08 12:16:26;;;;;;;4.23;3.77;;;16.80;95.90;;;;;;4996843;28;20509;-78
2023/10/08 12:19:00;;;;;;;3.13;2.83;;;16.80;95.50;;;;;;4996418;28;20531;-78
2023/10/08 12:21:32;;;;;;;3.47;3.17;;;16.80;95.20;;;;;;4997021;28;20474;-78
2023/10/08 12:24:01;;;;;;;2.97;2.63;;;16.90;95.60;;;;;;4989907;28;20494;-78
2023/10/08 12:27:03;;;;;;;3.40;3.13;;;16.90;95.80;;;;;;5007738;28;20471;-79
2023/10/08 12:29:32;;;;;;;3.90;3.50;;;16.90;96.00;;;;;;4998342;28;20469;-86
2023/10/08 12:59:23;;;;;;;3.47;3.17;;;17.00;94.50;;;;;;4965397;28;20463;-87
2023/10/08 13:01:56;;;;;;;2.00;1.80;;;17.00;94.90;;;;;;5017135;28;20544;-88
2023/10/08 13:04:45;;;;;;;1.70;1.47;;;17.10;94.90;;;;;;5016653;28;20499;-87
2023/10/08 13:07:45;;;;;;;2.33;1.60;;;17.10;94.70;;;;;;5013164;28;20463;-88
2023/10/08 13:10:21;;;;;;;2.77;1.57;;;17.10;94.70;;;;;;5031082;28;20463;-88
2023/10/08 13:31:45;;;;;;;3.77;1.73;;;17.10;94.70;;;;;;4817180;26;20445;-79
2023/10/08 13:34:27;;;;;;;1.90;1.40;;;17.10;93.70;;;;;;5080868;28;20516;-89
2023/10/08 13:36:58;;;;;;;1.67;1.33;;;17.10;93.90;;;;;;5083534;28;20473;-88
2023/10/08 13:39:35;;;;;;;2.73;2.50;;;17.10;93.20;;;;;;5077603;28;20469;-79
2023/10/08 13:42:03;;;;;;;1.77;1.53;;;17.10;94.00;;;;;;5060181;28;20477;-79
2023/10/08 13:44:30;;;;;;;3.10;2.53;;;17.20;94.20;;;;;;5095963;28;21039;-88
2023/10/08 13:46:58;;;;;;;2.57;2.00;;;17.20;94.40;;;;;;5087516;28;20467;-87
2023/10/08 13:49:26;;;;;;;2.40;1.40;;;17.20;94.50;;;;;;5075426;28;20494;-78
2023/10/08 13:51:56;;;;;;;2.20;2.00;;;17.20;94.40;;;;;;5082898;28;20470;-87
2023/10/08 13:54:29;;;;;;;2.30;1.67;;;17.30;94.10;;;;;;5075455;28;20549;-79
2023/10/08 13:56:56;;;;;;;3.83;3.43;;;17.30;93.90;;;;;;5073316;28;20557;-88
2023/10/08 13:59:24;;;;;;;5.40;4.67;;;17.30;94.40;;;;;;5075574;28;20500;-88
2023/10/08 14:01:54;;;;;;;8.33;6.33;;;17.30;94.50;;;;;;5086890;28;20545;-78
2023/10/08 14:04:30;;;;;;;6.73;5.30;;;17.30;95.40;;;;;;5076552;28;20555;-89
2023/10/08 14:06:59;;;;;;;5.97;4.37;;;17.30;94.80;;;;;;5084279;28;20470;-79
2023/10/08 14:09:36;;;;;;;4.00;3.17;;;17.30;94.60;;;;;;5073912;28;20466;-79
2023/10/08 14:12:03;;;;;;;2.50;2.30;;;17.30;94.00;;;;;;5073713;28;20466;-88
2023/10/08 14:14:31;;;;;;;3.57;3.00;;;17.30;93.40;;;;;;5074479;28;20561;-88
2023/10/08 14:17:03;;;;;;;4.27;2.50;;;17.30;93.40;;;;;;5087314;28;20556;-87
2023/10/08 14:19:38;;;;;;;4.70;3.70;;;17.20;93.10;;;;;;5095759;28;20469;-79
2023/10/08 14:22:26;;;;;;;5.40;4.33;;;17.20;92.90;;;;;;5094763;28;20480;-80